sensor_id;sensor_type;location;lat;lon;timestamp;temperature;humidity
36594;DHT22;22603;47.900;8.146;2023-03-14T00:02:31;6.30;99.90
36594;DHT22;22603;47.900;8.146;2023-03-14T00:05:18;6.40;99.90
36594;DHT22;22603;47.900;8.146;2023-03-14T00:08:05;6.40;99.90
36594;DHT22;22603;47.900;8.146;2023-03-14T00:10:52;6.60;99.90
36594;DHT22;22603;47.900;8.146;2023-03-14T00:13:39;6.40;99.90
36594;DHT22;22603;47.900;8.146;2023-03-14T00:16:26;6.40;99.90
36594;DHT22;22603;47.900;8.146;2023-03-14T00:19:15;6.40;99.90
36594;DHT22;22603;47.900;8.146;2023-03-14T00:22:02;6.50;99.90
36594;DHT22;22603;47.900;8.146;2023-03-14T00:24:49;6.50;99.90
36594;DHT22;22603;47.900;8.146;2023-03-14T00:27:37;6.50;99.90
36594;DHT22;22603;47.900;8.146;2023-03-14T00:30:24;6.60;99.90
36594;DHT22;22603;47.900;8.146;2023-03-14T00:33:11;6.50;99.90
36594;DHT22;22603;47.900;8.146;2023-03-14T00:36:01;6.60;99.90
36594;DHT22;22603;47.900;8.146;2023-03-14T00:38:50;6.60;99.90
36594;DHT22;22603;47.900;8.146;2023-03-14T00:41:38;6.60;99.90
36594;DHT22;22603;47.900;8.146;2023-03-14T00:44:24;6.60;99.90
36594;DHT22;22603;47.900;8.146;2023-03-14T00:47:11;6.60;99.90
36594;DHT22;22603;47.900;8.146;2023-03-14T00:50:00;6.60;99.90
36594;DHT22;22603;47.900;8.146;2023-03-14T00:52:48;6.60;99.90
36594;DHT22;22603;47.900;8.146;2023-03-14T00:55:37;6.80;99.90
36594;DHT22;22603;47.900;8.146;2023-03-14T00:58:24;6.80;99.90
36594;DHT22;22603;47.900;8.146;2023-03-14T01:01:13;6.70;99.90
36594;DHT22;22603;47.900;8.146;2023-03-14T01:04:01;6.70;99.90
36594;DHT22;22603;47.900;8.146;2023-03-14T01:06:47;6.60;99.90
36594;DHT22;22603;47.900;8.146;2023-03-14T01:09:36;6.60;99.90
36594;DHT22;22603;47.900;8.146;2023-03-14T01:12:22;6.50;99.90
36594;DHT22;22603;47.900;8.146;2023-03-14T01:15:10;6.40;99.90
36594;DHT22;22603;47.900;8.146;2023-03-14T01:17:57;6.40;99.90
36594;DHT22;22603;47.900;8.146;2023-03-14T01:20:44;6.40;99.90
36594;DHT22;22603;47.900;8.146;2023-03-14T01:23:31;6.50;99.90
36594;DHT22;22603;47.900;8.146;2023-03-14T01:26:21;6.50;99.90
36594;DHT22;22603;47.900;8.146;2023-03-14T01:29:08;6.40;99.90
36594;DHT22;22603;47.900;8.146;2023-03-14T01:31:55;6.40;99.90
36594;DHT22;22603;47.900;8.146;2023-03-14T01:34:42;6.30;99.90
36594;DHT22;22603;47.900;8.146;2023-03-14T01:37:29;6.30;99.90
36594;DHT22;22603;47.900;8.146;2023-03-14T01:40:16;6.30;99.90
36594;DHT22;22603;47.900;8.146;2023-03-14T01:43:14;6.30;99.90
36594;DHT22;22603;47.900;8.146;2023-03-14T01:46:28;6.30;99.90
36594;DHT22;22603;47.900;8.146;2023-03-14T01:49:22;6.20;99.90
36594;DHT22;22603;47.900;8.146;2023-03-14T01:52:13;6.20;99.90
36594;DHT22;22603;47.900;8.146;2023-03-14T01:55:05;6.20;99.90
36594;DHT22;22603;47.900;8.146;2023-03-14T01:57:55;6.10;99.90
36594;DHT22;22603;47.900;8.146;2023-03-14T02:00:45;6.10;99.90
36594;DHT22;22603;47.900;8.146;2023-03-14T02:03:36;6.00;99.90
36594;DHT22;22603;47.900;8.146;2023-03-14T02:06:31;5.90;99.90
36594;DHT22;22603;47.900;8.146;2023-03-14T02:09:22;5.90;99.90
36594;DHT22;22603;47.900;8.146;2023-03-14T02:12:10;5.90;99.90
36594;DHT22;22603;47.900;8.146;2023-03-14T02:14:58;5.80;99.90
36594;DHT22;22603;47.900;8.146;2023-03-14T02:17:47;5.80;99.90
36594;DHT22;22603;47.900;8.146;2023-03-14T02:20:38;5.80;99.90
36594;DHT22;22603;47.900;8.146;2023-03-14T02:23:35;5.80;99.90
36594;DHT22;22603;47.900;8.146;2023-03-14T02:26:28;5.80;99.90
36594;DHT22;22603;47.900;8.146;2023-03-14T02:29:18;5.70;99.90
36594;DHT22;22603;47.900;8.146;2023-03-14T02:32:05;5.70;99.90
36594;DHT22;22603;47.900;8.146;2023-03-14T02:34:54;5.70;99.90
36594;DHT22;22603;47.900;8.146;2023-03-14T02:37:46;5.80;99.90
36594;DHT22;22603;47.900;8.146;2023-03-14T02:40:34;5.70;99.90
36594;DHT22;22603;47.900;8.146;2023-03-14T02:43:21;5.80;99.90
36594;DHT22;22603;47.900;8.146;2023-03-14T02:46:15;5.80;99.90
36594;DHT22;22603;47.900;8.146;2023-03-14T02:49:08;5.80;99.90
36594;DHT22;22603;47.900;8.146;2023-03-14T02:51:57;5.80;99.90
36594;DHT22;22603;47.900;8.146;2023-03-14T02:54:44;5.80;99.90
36594;DHT22;22603;47.900;8.146;2023-03-14T02:57:31;5.80;99.90
36594;DHT22;22603;47.900;8.146;2023-03-14T03:00:21;5.80;99.90
36594;DHT22;22603;47.900;8.146;2023-03-14T03:03:09;5.80;99.90
36594;DHT22;22603;47.900;8.146;2023-03-14T03:05:56;5.80;99.90
36594;DHT22;22603;47.900;8.146;2023-03-14T03:08:43;5.80;99.90
36594;DHT22;22603;47.900;8.146;2023-03-14T03:11:30;5.80;99.90
36594;DHT22;22603;47.900;8.146;2023-03-14T03:14:18;5.70;99.90
36594;DHT22;22603;47.900;8.146;2023-03-14T03:17:05;5.70;99.90
36594;DHT22;22603;47.900;8.146;2023-03-14T03:19:54;5.70;99.90
36594;DHT22;22603;47.900;8.146;2023-03-14T03:22:40;5.70;99.90
36594;DHT22;22603;47.900;8.146;2023-03-14T03:25:28;5.70;99.90
36594;DHT22;22603;47.900;8.146;2023-03-14T03:28:15;5.70;99.90
36594;DHT22;22603;47.900;8.146;2023-03-14T03:31:07;5.70;99.90
36594;DHT22;22603;47.900;8.146;2023-03-14T03:33:55;5.70;99.90
36594;DHT22;22603;47.900;8.146;2023-03-14T03:36:44;5.70;99.90
36594;DHT22;22603;47.900;8.146;2023-03-14T03:39:31;5.60;99.90
36594;DHT22;22603;47.900;8.146;2023-03-14T03:42:18;5.70;99.90
36594;DHT22;22603;47.900;8.146;2023-03-14T03:45:06;5.70;99.90
36594;DHT22;22603;47.900;8.146;2023-03-14T03:47:54;5.80;99.90
36594;DHT22;22603;47.900;8.146;2023-03-14T03:50:44;5.80;99.90
36594;DHT22;22603;47.900;8.146;2023-03-14T03:53:33;5.80;99.90
36594;DHT22;22603;47.900;8.146;2023-03-14T03:56:20;5.80;99.90
36594;DHT22;22603;47.900;8.146;2023-03-14T03:59:07;5.80;99.90
36594;DHT22;22603;47.900;8.146;2023-03-14T04:01:54;5.80;99.90
36594;DHT22;22603;47.900;8.146;2023-03-14T04:04:41;5.80;99.90
36594;DHT22;22603;47.900;8.146;2023-03-14T04:07:31;5.80;99.90
36594;DHT22;22603;47.900;8.146;2023-03-14T04:10:19;5.80;99.90
36594;DHT22;22603;47.900;8.146;2023-03-14T04:13:07;5.80;99.90
36594;DHT22;22603;47.900;8.146;2023-03-14T04:15:55;5.80;99.90
36594;DHT22;22603;47.900;8.146;2023-03-14T04:18:42;5.80;99.90
36594;DHT22;22603;47.900;8.146;2023-03-14T04:21:31;5.80;99.90
36594;DHT22;22603;47.900;8.146;2023-03-14T04:24:29;5.80;99.90
36594;DHT22;22603;47.900;8.146;2023-03-14T04:27:24;6.00;99.90
36594;DHT22;22603;47.900;8.146;2023-03-14T04:30:11;5.90;99.90
36594;DHT22;22603;47.900;8.146;2023-03-14T04:33:01;5.90;99.90
36594;DHT22;22603;47.900;8.146;2023-03-14T04:35:48;5.90;99.90
36594;DHT22;22603;47.900;8.146;2023-03-14T04:38:37;5.80;99.90
36594;DHT22;22603;47.900;8.146;2023-03-14T04:41:25;5.90;99.90
36594;DHT22;22603;47.900;8.146;2023-03-14T04:44:13;5.90;99.90
36594;DHT22;22603;47.900;8.146;2023-03-14T04:47:00;5.90;99.90
36594;DHT22;22603;47.900;8.146;2023-03-14T04:49:47;5.90;99.90
36594;DHT22;22603;47.900;8.146;2023-03-14T04:52:35;5.90;99.90
36594;DHT22;22603;47.900;8.146;2023-03-14T04:55:22;5.90;99.90
36594;DHT22;22603;47.900;8.146;2023-03-14T04:58:09;5.80;99.90
36594;DHT22;22603;47.900;8.146;2023-03-14T05:01:01;5.90;99.90
36594;DHT22;22603;47.900;8.146;2023-03-14T05:03:48;6.10;99.90
36594;DHT22;22603;47.900;8.146;2023-03-14T05:06:35;5.90;99.90
36594;DHT22;22603;47.900;8.146;2023-03-14T05:09:22;5.90;99.90
36594;DHT22;22603;47.900;8.146;2023-03-14T05:12:09;5.90;99.90
36594;DHT22;22603;47.900;8.146;2023-03-14T05:14:56;5.90;99.90
36594;DHT22;22603;47.900;8.146;2023-03-14T05:17:45;6.00;99.90
36594;DHT22;22603;47.900;8.146;2023-03-14T05:20:32;5.90;99.90
36594;DHT22;22603;47.900;8.146;2023-03-14T05:23:19;6.10;99.90
36594;DHT22;22603;47.900;8.146;2023-03-14T05:26:06;6.10;99.90
36594;DHT22;22603;47.900;8.146;2023-03-14T05:28:53;6.10;99.90
36594;DHT22;22603;47.900;8.146;2023-03-14T05:31:42;6.10;99.90
36594;DHT22;22603;47.900;8.146;2023-03-14T05:34:30;6.10;99.90
36594;DHT22;22603;47.900;8.146;2023-03-14T05:37:17;6.10;99.90
36594;DHT22;22603;47.900;8.146;2023-03-14T05:40:06;6.20;99.90
36594;DHT22;22603;47.900;8.146;2023-03-14T05:42:54;6.10;99.90
36594;DHT22;22603;47.900;8.146;2023-03-14T05:45:42;6.10;99.90
36594;DHT22;22603;47.900;8.146;2023-03-14T05:48:29;6.10;99.90
36594;DHT22;22603;47.900;8.146;2023-03-14T05:51:17;6.00;99.90
36594;DHT22;22603;47.900;8.146;2023-03-14T05:54:04;6.10;99.90
36594;DHT22;22603;47.900;8.146;2023-03-14T05:56:51;6.10;99.90
36594;DHT22;22603;47.900;8.146;2023-03-14T05:59:38;6.10;99.90
36594;DHT22;22603;47.900;8.146;2023-03-14T06:02:25;6.10;99.90
36594;DHT22;22603;47.900;8.146;2023-03-14T06:05:13;6.10;99.90
36594;DHT22;22603;47.900;8.146;2023-03-14T06:08:02;6.00;99.90
36594;DHT22;22603;47.900;8.146;2023-03-14T06:10:50;6.00;99.90
36594;DHT22;22603;47.900;8.146;2023-03-14T06:13:37;6.00;99.90
36594;DHT22;22603;47.900;8.146;2023-03-14T06:16:23;6.10;99.90
36594;DHT22;22603;47.900;8.146;2023-03-14T06:19:10;6.00;99.90
36594;DHT22;22603;47.900;8.146;2023-03-14T06:21:57;6.10;99.90
36594;DHT22;22603;47.900;8.146;2023-03-14T06:24:46;6.20;99.90
36594;DHT22;22603;47.900;8.146;2023-03-14T06:27:33;6.20;99.90
36594;DHT22;22603;47.900;8.146;2023-03-14T06:30:20;6.40;99.90
36594;DHT22;22603;47.900;8.146;2023-03-14T06:33:07;6.40;99.90
36594;DHT22;22603;47.900;8.146;2023-03-14T06:35:54;6.40;99.90
36594;DHT22;22603;47.900;8.146;2023-03-14T06:38:41;6.60;99.90
36594;DHT22;22603;47.900;8.146;2023-03-14T06:41:29;6.60;99.90
36594;DHT22;22603;47.900;8.146;2023-03-14T06:44:18;6.60;99.90
36594;DHT22;22603;47.900;8.146;2023-03-14T06:47:04;6.70;99.90
36594;DHT22;22603;47.900;8.146;2023-03-14T06:49:51;6.80;99.90
36594;DHT22;22603;47.900;8.146;2023-03-14T06:52:38;6.90;99.90
36594;DHT22;22603;47.900;8.146;2023-03-14T06:55:26;7.00;99.90
36594;DHT22;22603;47.900;8.146;2023-03-14T06:58:15;7.20;99.90
36594;DHT22;22603;47.900;8.146;2023-03-14T07:01:01;7.20;99.90
36594;DHT22;22603;47.900;8.146;2023-03-14T07:03:48;7.20;99.90
36594;DHT22;22603;47.900;8.146;2023-03-14T07:06:35;7.20;99.90
36594;DHT22;22603;47.900;8.146;2023-03-14T07:09:22;7.10;99.90
36594;DHT22;22603;47.900;8.146;2023-03-14T07:12:09;7.10;99.90
36594;DHT22;22603;47.900;8.146;2023-03-14T07:14:57;7.10;99.90
36594;DHT22;22603;47.900;8.146;2023-03-14T07:18:01;7.00;99.90
36594;DHT22;22603;47.900;8.146;2023-03-14T07:20:49;6.90;99.90
36594;DHT22;22603;47.900;8.146;2023-03-14T07:23:36;6.90;99.90
36594;DHT22;22603;47.900;8.146;2023-03-14T07:26:23;6.90;99.90
36594;DHT22;22603;47.900;8.146;2023-03-14T07:29:10;6.80;99.90
36594;DHT22;22603;47.900;8.146;2023-03-14T07:31:58;6.70;99.90
36594;DHT22;22603;47.900;8.146;2023-03-14T07:34:45;6.70;99.90
36594;DHT22;22603;47.900;8.146;2023-03-14T07:37:32;6.70;99.90
36594;DHT22;22603;47.900;8.146;2023-03-14T07:40:19;6.80;99.90
36594;DHT22;22603;47.900;8.146;2023-03-14T07:43:06;6.90;99.90
36594;DHT22;22603;47.900;8.146;2023-03-14T07:45:53;6.90;99.90
36594;DHT22;22603;47.900;8.146;2023-03-14T07:48:45;6.80;99.90
36594;DHT22;22603;47.900;8.146;2023-03-14T07:51:32;7.10;99.90
36594;DHT22;22603;47.900;8.146;2023-03-14T07:54:19;7.30;99.90
36594;DHT22;22603;47.900;8.146;2023-03-14T07:57:06;7.70;99.90
36594;DHT22;22603;47.900;8.146;2023-03-14T07:59:53;8.20;99.90
36594;DHT22;22603;47.900;8.146;2023-03-14T08:02:40;8.00;99.90
36594;DHT22;22603;47.900;8.146;2023-03-14T08:05:29;7.90;99.90
36594;DHT22;22603;47.900;8.146;2023-03-14T08:08:16;7.80;99.90
36594;DHT22;22603;47.900;8.146;2023-03-14T08:11:04;7.60;99.90
36594;DHT22;22603;47.900;8.146;2023-03-14T08:13:51;7.80;99.90
36594;DHT22;22603;47.900;8.146;2023-03-14T08:16:38;7.90;99.90
36594;DHT22;22603;47.900;8.146;2023-03-14T08:19:25;8.00;99.90
36594;DHT22;22603;47.900;8.146;2023-03-14T08:22:14;8.10;99.90
36594;DHT22;22603;47.900;8.146;2023-03-14T08:25:05;7.80;99.90
36594;DHT22;22603;47.900;8.146;2023-03-14T08:27:53;7.80;99.90
36594;DHT22;22603;47.900;8.146;2023-03-14T08:30:40;7.80;99.90
36594;DHT22;22603;47.900;8.146;2023-03-14T08:33:32;7.80;99.90
36594;DHT22;22603;47.900;8.146;2023-03-14T08:36:19;7.60;99.90
36594;DHT22;22603;47.900;8.146;2023-03-14T08:39:10;7.60;99.90
36594;DHT22;22603;47.900;8.146;2023-03-14T08:41:57;7.70;99.90
36594;DHT22;22603;47.900;8.146;2023-03-14T08:44:44;7.30;99.90
36594;DHT22;22603;47.900;8.146;2023-03-14T08:47:31;7.20;99.90
36594;DHT22;22603;47.900;8.146;2023-03-14T08:50:18;7.20;99.90
36594;DHT22;22603;47.900;8.146;2023-03-14T08:53:06;7.20;99.90
36594;DHT22;22603;47.900;8.146;2023-03-14T08:55:54;7.20;99.90
36594;DHT22;22603;47.900;8.146;2023-03-14T08:58:42;7.20;99.90
36594;DHT22;22603;47.900;8.146;2023-03-14T09:01:29;7.30;99.90
36594;DHT22;22603;47.900;8.146;2023-03-14T09:04:16;7.50;99.90
36594;DHT22;22603;47.900;8.146;2023-03-14T09:07:04;7.80;99.90
36594;DHT22;22603;47.900;8.146;2023-03-14T09:09:51;8.40;99.90
36594;DHT22;22603;47.900;8.146;2023-03-14T09:12:39;8.60;99.90
36594;DHT22;22603;47.900;8.146;2023-03-14T09:15:26;8.80;99.90
36594;DHT22;22603;47.900;8.146;2023-03-14T09:18:13;9.20;99.90
36594;DHT22;22603;47.900;8.146;2023-03-14T09:21:00;9.00;99.90
36594;DHT22;22603;47.900;8.146;2023-03-14T09:23:47;9.80;99.90
36594;DHT22;22603;47.900;8.146;2023-03-14T09:26:34;10.20;99.90
36594;DHT22;22603;47.900;8.146;2023-03-14T09:29:25;9.50;99.90
36594;DHT22;22603;47.900;8.146;2023-03-14T09:32:12;9.70;99.90
36594;DHT22;22603;47.900;8.146;2023-03-14T09:34:59;9.70;99.90
36594;DHT22;22603;47.900;8.146;2023-03-14T09:37:46;9.50;99.90
36594;DHT22;22603;47.900;8.146;2023-03-14T09:40:35;9.60;99.90
36594;DHT22;22603;47.900;8.146;2023-03-14T09:43:24;9.40;99.90
36594;DHT22;22603;47.900;8.146;2023-03-14T09:46:14;9.10;99.90
36594;DHT22;22603;47.900;8.146;2023-03-14T09:49:02;8.90;99.90
36594;DHT22;22603;47.900;8.146;2023-03-14T09:51:51;8.60;99.90
36594;DHT22;22603;47.900;8.146;2023-03-14T09:54:43;8.50;99.90
36594;DHT22;22603;47.900;8.146;2023-03-14T09:57:33;8.30;99.90
36594;DHT22;22603;47.900;8.146;2023-03-14T10:00:23;7.90;99.90
36594;DHT22;22603;47.900;8.146;2023-03-14T10:03:31;7.70;99.90
36594;DHT22;22603;47.900;8.146;2023-03-14T10:06:25;7.20;99.90
36594;DHT22;22603;47.900;8.146;2023-03-14T10:09:19;7.00;99.90
36594;DHT22;22603;47.900;8.146;2023-03-14T10:12:10;6.90;99.90
36594;DHT22;22603;47.900;8.146;2023-03-14T10:15:03;6.70;99.90
36594;DHT22;22603;47.900;8.146;2023-03-14T10:17:51;6.70;99.90
36594;DHT22;22603;47.900;8.146;2023-03-14T10:20:41;6.70;99.90
36594;DHT22;22603;47.900;8.146;2023-03-14T10:23:29;6.60;99.90
36594;DHT22;22603;47.900;8.146;2023-03-14T10:26:18;6.50;99.90
36594;DHT22;22603;47.900;8.146;2023-03-14T10:29:11;6.60;99.90
36594;DHT22;22603;47.900;8.146;2023-03-14T10:32:01;6.50;99.90
36594;DHT22;22603;47.900;8.146;2023-03-14T10:35:06;6.50;99.90
36594;DHT22;22603;47.900;8.146;2023-03-14T10:37:57;6.50;99.90
36594;DHT22;22603;47.900;8.146;2023-03-14T10:40:47;6.40;99.90
36594;DHT22;22603;47.900;8.146;2023-03-14T10:43:36;6.40;99.90
36594;DHT22;22603;47.900;8.146;2023-03-14T10:46:26;6.40;99.90
36594;DHT22;22603;47.900;8.146;2023-03-14T10:49:25;6.20;99.90
36594;DHT22;22603;47.900;8.146;2023-03-14T10:52:19;6.20;99.90
36594;DHT22;22603;47.900;8.146;2023-03-14T10:55:23;6.10;99.90
36594;DHT22;22603;47.900;8.146;2023-03-14T10:58:19;6.00;99.90
36594;DHT22;22603;47.900;8.146;2023-03-14T11:01:20;6.00;99.90
36594;DHT22;22603;47.900;8.146;2023-03-14T11:04:26;5.70;99.90
36594;DHT22;22603;47.900;8.146;2023-03-14T11:07:26;5.60;99.90
36594;DHT22;22603;47.900;8.146;2023-03-14T11:10:22;5.50;99.90
36594;DHT22;22603;47.900;8.146;2023-03-14T11:13:16;5.70;99.90
36594;DHT22;22603;47.900;8.146;2023-03-14T11:16:09;5.50;99.90
36594;DHT22;22603;47.900;8.146;2023-03-14T11:22:29;5.50;99.90
36594;DHT22;22603;47.900;8.146;2023-03-14T11:25:24;5.40;99.90
36594;DHT22;22603;47.900;8.146;2023-03-14T11:28:18;5.40;99.90
36594;DHT22;22603;47.900;8.146;2023-03-14T11:31:13;5.40;99.90
36594;DHT22;22603;47.900;8.146;2023-03-14T11:34:12;5.40;99.90
36594;DHT22;22603;47.900;8.146;2023-03-14T11:37:05;5.40;99.90
36594;DHT22;22603;47.900;8.146;2023-03-14T11:39:59;5.40;99.90
36594;DHT22;22603;47.900;8.146;2023-03-14T11:42:54;5.30;99.90
36594;DHT22;22603;47.900;8.146;2023-03-14T11:45:43;5.20;99.90
36594;DHT22;22603;47.900;8.146;2023-03-14T11:48:38;5.40;99.90
36594;DHT22;22603;47.900;8.146;2023-03-14T11:51:33;5.40;99.90
36594;DHT22;22603;47.900;8.146;2023-03-14T11:54:31;5.40;99.90
36594;DHT22;22603;47.900;8.146;2023-03-14T11:57:27;5.60;99.90
36594;DHT22;22603;47.900;8.146;2023-03-14T12:00:24;6.00;99.90
36594;DHT22;22603;47.900;8.146;2023-03-14T12:03:17;6.10;99.90
36594;DHT22;22603;47.900;8.146;2023-03-14T12:06:14;5.00;99.90
36594;DHT22;22603;47.900;8.146;2023-03-14T12:09:07;4.00;99.90
36594;DHT22;22603;47.900;8.146;2023-03-14T12:11:57;3.20;99.90
36594;DHT22;22603;47.900;8.146;2023-03-14T12:14:46;2.80;99.90
36594;DHT22;22603;47.900;8.146;2023-03-14T12:17:37;2.50;99.90
36594;DHT22;22603;47.900;8.146;2023-03-14T12:20:26;2.40;99.90
36594;DHT22;22603;47.900;8.146;2023-03-14T12:23:14;2.30;99.90
36594;DHT22;22603;47.900;8.146;2023-03-14T12:26:14;2.20;99.90
36594;DHT22;22603;47.900;8.146;2023-03-14T12:29:14;2.10;99.90
36594;DHT22;22603;47.900;8.146;2023-03-14T12:32:20;2.20;99.90
36594;DHT22;22603;47.900;8.146;2023-03-14T12:35:35;2.20;99.90
36594;DHT22;22603;47.900;8.146;2023-03-14T12:38:27;2.20;99.90
36594;DHT22;22603;47.900;8.146;2023-03-14T12:41:20;2.20;99.90
36594;DHT22;22603;47.900;8.146;2023-03-14T12:44:38;2.30;99.90
36594;DHT22;22603;47.900;8.146;2023-03-14T12:47:51;2.60;99.90
36594;DHT22;22603;47.900;8.146;2023-03-14T12:50:45;2.80;99.90
36594;DHT22;22603;47.900;8.146;2023-03-14T12:56:58;3.10;99.90
36594;DHT22;22603;47.900;8.146;2023-03-14T12:59:50;3.30;99.90
36594;DHT22;22603;47.900;8.146;2023-03-14T13:02:38;3.50;99.90
36594;DHT22;22603;47.900;8.146;2023-03-14T13:05:27;3.70;99.90
36594;DHT22;22603;47.900;8.146;2023-03-14T13:08:33;3.80;99.90
36594;DHT22;22603;47.900;8.146;2023-03-14T13:11:24;3.80;99.90
36594;DHT22;22603;47.900;8.146;2023-03-14T13:14:12;4.00;99.90
36594;DHT22;22603;47.900;8.146;2023-03-14T13:16:59;4.50;99.90
36594;DHT22;22603;47.900;8.146;2023-03-14T13:20:14;4.30;99.90
36594;DHT22;22603;47.900;8.146;2023-03-14T13:23:04;4.10;99.90
36594;DHT22;22603;47.900;8.146;2023-03-14T13:25:53;4.00;99.90
36594;DHT22;22603;47.900;8.146;2023-03-14T13:28:41;4.00;99.90
36594;DHT22;22603;47.900;8.146;2023-03-14T13:31:28;4.20;99.90
36594;DHT22;22603;47.900;8.146;2023-03-14T13:34:17;3.90;99.90
36594;DHT22;22603;47.900;8.146;2023-03-14T13:37:04;3.80;99.90
36594;DHT22;22603;47.900;8.146;2023-03-14T13:39:52;3.80;99.90
36594;DHT22;22603;47.900;8.146;2023-03-14T13:42:42;3.80;99.90
36594;DHT22;22603;47.900;8.146;2023-03-14T13:45:30;3.70;99.90
36594;DHT22;22603;47.900;8.146;2023-03-14T13:48:17;3.60;99.90
36594;DHT22;22603;47.900;8.146;2023-03-14T13:51:06;3.70;99.90
36594;DHT22;22603;47.900;8.146;2023-03-14T13:53:55;3.70;99.90
36594;DHT22;22603;47.900;8.146;2023-03-14T13:56:43;3.80;99.90
36594;DHT22;22603;47.900;8.146;2023-03-14T13:59:33;3.70;99.90
36594;DHT22;22603;47.900;8.146;2023-03-14T14:02:20;3.80;99.90
36594;DHT22;22603;47.900;8.146;2023-03-14T14:05:10;3.80;99.90
36594;DHT22;22603;47.900;8.146;2023-03-14T14:07:57;3.90;99.90
36594;DHT22;22603;47.900;8.146;2023-03-14T14:10:47;4.30;99.90
36594;DHT22;22603;47.900;8.146;2023-03-14T14:13:35;4.40;99.90
36594;DHT22;22603;47.900;8.146;2023-03-14T14:16:25;4.50;99.90
36594;DHT22;22603;47.900;8.146;2023-03-14T14:19:13;4.50;99.90
36594;DHT22;22603;47.900;8.146;2023-03-14T14:22:01;4.50;99.90
36594;DHT22;22603;47.900;8.146;2023-03-14T14:24:48;4.40;99.90
36594;DHT22;22603;47.900;8.146;2023-03-14T14:27:39;4.40;99.90
36594;DHT22;22603;47.900;8.146;2023-03-14T14:30:31;4.10;99.90
36594;DHT22;22603;47.900;8.146;2023-03-14T14:33:21;3.90;99.90
36594;DHT22;22603;47.900;8.146;2023-03-14T14:36:16;3.90;99.90
36594;DHT22;22603;47.900;8.146;2023-03-14T14:39:10;4.00;99.90
36594;DHT22;22603;47.900;8.146;2023-03-14T14:41:58;3.80;99.90
36594;DHT22;22603;47.900;8.146;2023-03-14T14:44:46;3.70;99.90
36594;DHT22;22603;47.900;8.146;2023-03-14T14:47:35;3.70;99.90
36594;DHT22;22603;47.900;8.146;2023-03-14T14:50:30;3.70;99.90
36594;DHT22;22603;47.900;8.146;2023-03-14T14:53:23;3.80;99.90
36594;DHT22;22603;47.900;8.146;2023-03-14T14:56:16;3.80;99.90
36594;DHT22;22603;47.900;8.146;2023-03-14T14:59:06;3.80;99.90
36594;DHT22;22603;47.900;8.146;2023-03-14T15:01:58;3.80;99.90
36594;DHT22;22603;47.900;8.146;2023-03-14T15:04:46;4.40;99.90
36594;DHT22;22603;47.900;8.146;2023-03-14T15:07:35;4.50;99.90
36594;DHT22;22603;47.900;8.146;2023-03-14T15:10:23;4.70;99.90
36594;DHT22;22603;47.900;8.146;2023-03-14T15:13:11;4.70;99.90
36594;DHT22;22603;47.900;8.146;2023-03-14T15:15:59;4.70;99.90
36594;DHT22;22603;47.900;8.146;2023-03-14T15:18:47;4.60;99.90
36594;DHT22;22603;47.900;8.146;2023-03-14T15:21:36;4.50;99.90
36594;DHT22;22603;47.900;8.146;2023-03-14T15:24:24;4.40;99.90
36594;DHT22;22603;47.900;8.146;2023-03-14T15:27:13;4.40;99.90
36594;DHT22;22603;47.900;8.146;2023-03-14T15:30:01;4.90;99.90
36594;DHT22;22603;47.900;8.146;2023-03-14T15:32:48;5.10;99.90
36594;DHT22;22603;47.900;8.146;2023-03-14T15:35:36;5.20;99.90
36594;DHT22;22603;47.900;8.146;2023-03-14T15:38:23;5.20;99.90
36594;DHT22;22603;47.900;8.146;2023-03-14T15:41:12;5.30;99.90
36594;DHT22;22603;47.900;8.146;2023-03-14T15:43:59;5.50;99.90
36594;DHT22;22603;47.900;8.146;2023-03-14T15:46:45;5.20;99.90
36594;DHT22;22603;47.900;8.146;2023-03-14T15:49:33;5.30;99.90
36594;DHT22;22603;47.900;8.146;2023-03-14T15:52:20;5.10;99.90
36594;DHT22;22603;47.900;8.146;2023-03-14T15:55:08;5.30;99.90
36594;DHT22;22603;47.900;8.146;2023-03-14T15:57:57;5.20;99.90
36594;DHT22;22603;47.900;8.146;2023-03-14T16:00:44;5.20;99.90
36594;DHT22;22603;47.900;8.146;2023-03-14T16:03:31;5.30;99.90
36594;DHT22;22603;47.900;8.146;2023-03-14T16:06:19;5.40;99.90
36594;DHT22;22603;47.900;8.146;2023-03-14T16:09:06;5.20;99.90
36594;DHT22;22603;47.900;8.146;2023-03-14T16:11:53;5.30;99.90
36594;DHT22;22603;47.900;8.146;2023-03-14T16:14:42;5.20;99.90
36594;DHT22;22603;47.900;8.146;2023-03-14T16:17:29;5.20;99.90
36594;DHT22;22603;47.900;8.146;2023-03-14T16:20:17;5.00;99.90
36594;DHT22;22603;47.900;8.146;2023-03-14T16:23:04;4.80;99.90
36594;DHT22;22603;47.900;8.146;2023-03-14T16:25:52;4.90;99.90
36594;DHT22;22603;47.900;8.146;2023-03-14T16:28:40;4.40;99.90
36594;DHT22;22603;47.900;8.146;2023-03-14T16:31:29;4.40;99.90
36594;DHT22;22603;47.900;8.146;2023-03-14T16:34:15;4.40;99.90
36594;DHT22;22603;47.900;8.146;2023-03-14T16:37:03;4.30;99.90
36594;DHT22;22603;47.900;8.146;2023-03-14T16:39:50;4.30;99.90
36594;DHT22;22603;47.900;8.146;2023-03-14T16:42:56;4.20;99.90
36594;DHT22;22603;47.900;8.146;2023-03-14T16:46:04;4.20;99.90
36594;DHT22;22603;47.900;8.146;2023-03-14T16:48:54;4.10;99.90
36594;DHT22;22603;47.900;8.146;2023-03-14T16:51:41;4.20;99.90
36594;DHT22;22603;47.900;8.146;2023-03-14T16:54:28;3.90;99.90
36594;DHT22;22603;47.900;8.146;2023-03-14T16:57:15;3.80;99.90
36594;DHT22;22603;47.900;8.146;2023-03-14T17:00:03;3.70;99.90
36594;DHT22;22603;47.900;8.146;2023-03-14T17:02:55;3.70;99.90
36594;DHT22;22603;47.900;8.146;2023-03-14T17:05:46;3.80;99.90
36594;DHT22;22603;47.900;8.146;2023-03-14T17:08:33;3.70;99.90
36594;DHT22;22603;47.900;8.146;2023-03-14T17:11:21;3.90;99.90
36594;DHT22;22603;47.900;8.146;2023-03-14T17:14:11;3.70;99.90
36594;DHT22;22603;47.900;8.146;2023-03-14T17:16:58;3.70;99.90
36594;DHT22;22603;47.900;8.146;2023-03-14T17:19:48;3.70;99.90
36594;DHT22;22603;47.900;8.146;2023-03-14T17:22:39;3.60;99.90
36594;DHT22;22603;47.900;8.146;2023-03-14T17:25:27;3.60;99.90
36594;DHT22;22603;47.900;8.146;2023-03-14T17:28:50;3.60;99.90
36594;DHT22;22603;47.900;8.146;2023-03-14T17:31:37;3.60;99.90
36594;DHT22;22603;47.900;8.146;2023-03-14T17:34:24;3.50;99.90
36594;DHT22;22603;47.900;8.146;2023-03-14T17:37:12;3.40;99.90
36594;DHT22;22603;47.900;8.146;2023-03-14T17:40:00;3.30;99.90
36594;DHT22;22603;47.900;8.146;2023-03-14T17:42:49;3.20;99.90
36594;DHT22;22603;47.900;8.146;2023-03-14T17:45:36;3.20;99.90
36594;DHT22;22603;47.900;8.146;2023-03-14T17:48:23;3.10;99.90
36594;DHT22;22603;47.900;8.146;2023-03-14T17:51:10;3.00;99.90
36594;DHT22;22603;47.900;8.146;2023-03-14T17:53:57;3.10;99.90
36594;DHT22;22603;47.900;8.146;2023-03-14T17:56:46;3.00;99.90
36594;DHT22;22603;47.900;8.146;2023-03-14T17:59:33;3.10;99.90
36594;DHT22;22603;47.900;8.146;2023-03-14T18:02:21;3.10;99.90
36594;DHT22;22603;47.900;8.146;2023-03-14T18:05:09;3.10;99.90
36594;DHT22;22603;47.900;8.146;2023-03-14T18:07:57;3.10;99.90
36594;DHT22;22603;47.900;8.146;2023-03-14T18:10:44;3.10;99.90
36594;DHT22;22603;47.900;8.146;2023-03-14T18:13:33;3.10;99.90
36594;DHT22;22603;47.900;8.146;2023-03-14T18:16:23;3.10;99.90